Time;durP1;ratioP1;P1;durP2;ratioP2;P2;SDS_P1;SDS_P2;PMS_P1;PMS_P2;Temp;Humidity;BMP_temperature;BMP_pressure;BME280_temperature;BME280_humidity;BME280_pressure;Samples;Min_cycle;Max_cycle;Signal;HPM_P1;HPM_P2
2022/05/11 00:00:55;;;;;;;6.28;5.97;;;;;;;10.51;94.27;100965.72;5034429;28;20112;-61
2022/05/11 00:03:21;;;;;;;6.30;6.03;;;;;;;10.47;93.78;100961.72;5033475;28;20105;-61
2022/05/11 00:05:47;;;;;;;6.40;6.10;;;;;;;10.34;94.25;100961.34;5033538;28;20028;-60
2022/05/11 00:08:12;;;;;;;6.70;6.40;;;;;;;10.27;95.48;100967.47;5035022;28;20457;-62
2022/05/11 00:10:38;;;;;;;6.43;6.13;;;;;;;10.24;95.67;100971.28;5034656;28;20036;-62
2022/05/11 00:13:04;;;;;;;6.47;6.18;;;;;;;10.28;95.58;100966.47;5034503;28;20021;-61
2022/05/11 00:15:30;;;;;;;6.68;6.38;;;;;;;10.19;96.41;100963.75;5034116;28;20144;-61
2022/05/11 00:17:57;;;;;;;6.45;6.15;;;;;;;10.18;96.21;100964.75;5033697;28;20026;-62
2022/05/11 00:20:23;;;;;;;6.63;6.32;;;;;;;10.09;96.75;100960.44;5034615;28;20025;-61
2022/05/11 00:22:56;;;;;;;6.35;6.05;;;;;;;10.02;97.93;100967.34;5034318;28;20032;-61
2022/05/11 00:25:25;;;;;;;6.47;6.18;;;;;;;10.05;98.05;100971.50;5034700;28;20032;-60
2022/05/11 00:27:54;;;;;;;6.40;6.10;;;;;;;10.00;97.94;100956.09;5034519;28;20031;-61
2022/05/11 00:30:20;;;;;;;6.68;6.38;;;;;;;10.05;97.56;100960.91;5033859;28;20060;-61
2022/05/11 00:32:46;;;;;;;6.53;6.22;;;;;;;10.10;97.24;100970.03;5034327;28;20481;-61
2022/05/11 00:35:12;;;;;;;6.55;6.25;;;;;;;9.98;96.88;100958.88;5036430;28;20029;-61
2022/05/11 00:37:37;;;;;;;6.38;6.07;;;;;;;10.05;95.44;100963.53;5038207;28;20029;-61
2022/05/11 00:40:03;;;;;;;6.53;6.22;;;;;;;9.97;95.47;100962.53;5034440;28;20025;-61
2022/05/11 00:42:29;;;;;;;6.47;6.18;;;;;;;9.95;96.11;100964.50;5027048;28;20064;-60
2022/05/11 00:44:55;;;;;;;6.40;6.10;;;;;;;10.01;96.53;100963.06;5034390;28;20108;-60
2022/05/11 00:47:23;;;;;;;6.82;6.53;;;;;;;9.98;96.34;100969.47;5034258;28;20028;-61
2022/05/11 00:49:55;;;;;;;6.72;6.43;;;;;;;9.95;96.50;100974.28;5026117;28;20563;-62
2022/05/11 00:52:42;;;;;;;6.95;6.65;;;;;;;10.09;97.04;100971.03;5027345;28;20035;-61
2022/05/11 00:55:16;;;;;;;6.43;6.13;;;;;;;10.03;97.23;100968.19;5034175;28;20033;-61
2022/05/11 00:57:42;;;;;;;;;;;;;;;10.07;96.93;100970.38;5028871;28;20025;-62
2022/05/11 01:00:12;;;;;;;6.38;6.07;;;;;;;10.10;97.03;100967.38;5033887;28;19916;-61
2022/05/11 01:02:40;;;;;;;6.38;6.07;;;;;;;10.06;96.87;100965.19;5032822;28;20083;-60
2022/05/11 01:05:07;;;;;;;6.28;5.97;;;;;;;10.08;96.51;100966.72;5028287;28;20119;-61
2022/05/11 01:07:35;;;;;;;6.32;6.03;;;;;;;10.03;97.36;100966.38;5018319;28;20504;-61
2022/05/11 01:10:01;;;;;;;6.40;6.10;;;;;;;10.02;96.34;100964.72;5033785;28;20378;-61
2022/05/11 01:12:32;;;;;;;6.20;5.90;;;;;;;9.96;95.99;100965.34;5053099;28;20481;-61
2022/05/11 01:15:00;;;;;;;6.30;6.00;;;;;;;9.93;95.26;100963.03;5033629;28;20049;-61
2022/05/11 01:17:28;;;;;;;6.45;6.15;;;;;;;9.91;95.43;100964.97;5033523;28;20033;-61
2022/05/11 01:19:53;;;;;;;6.38;6.07;;;;;;;9.92;95.51;100969.31;5033541;28;20396;-61
2022/05/11 01:22:31;;;;;;;6.38;6.07;;;;;;;9.88;95.88;100968.78;5032523;28;20034;-61
2022/05/11 01:24:57;;;;;;;6.35;6.05;;;;;;;9.81;97.25;100972.25;5033355;28;20021;-61
2022/05/11 01:27:42;;;;;;;6.22;5.93;;;;;;;9.85;97.47;100977.06;5033221;28;20036;-61
2022/05/11 01:30:10;;;;;;;6.57;6.28;;;;;;;9.87;97.56;100976.91;5033240;28;20029;-61
2022/05/11 01:32:36;;;;;;;6.30;6.00;;;;;;;9.81;96.34;100978.38;5033357;28;20047;-62
2022/05/11 01:35:33;;;;;;;6.35;6.05;;;;;;;9.83;95.64;100978.19;5033206;28;20468;-61
2022/05/11 01:38:29;;;;;;;7.10;6.80;;;;;;;9.79;96.10;100968.91;5015055;28;20460;-61
2022/05/11 01:40:55;;;;;;;6.60;6.30;;;;;;;9.71;96.25;100975.00;5023066;28;20540;-61
2022/05/11 01:43:26;;;;;;;6.43;6.13;;;;;;;9.64;96.66;100976.63;5022989;28;20046;-60
2022/05/11 01:45:52;;;;;;;5.97;5.78;;;;;;;9.65;95.95;100973.81;5031963;28;20134;-61
2022/05/11 01:48:18;;;;;;;6.28;5.97;;;;;;;9.59;96.30;100974.44;5033079;28;20507;-60
2022/05/11 01:50:44;;;;;;;6.68;6.38;;;;;;;9.54;97.57;100982.03;5032884;28;20504;-61
2022/05/11 01:53:10;;;;;;;6.53;6.22;;;;;;;9.52;97.59;100962.81;5032827;28;20018;-60
2022/05/11 01:55:35;;;;;;;6.28;5.97;;;;;;;9.42;98.24;100967.41;5032885;28;20025;-61
2022/05/11 01:58:06;;;;;;;6.38;6.07;;;;;;;9.46;98.43;100968.72;5032178;28;20037;-61
2022/05/11 02:00:34;;;;;;;6.53;6.22;;;;;;;9.33;99.45;100966.53;5032947;28;20108;-61
2022/05/11 02:03:00;;;;;;;5.80;5.60;;;;;;;9.33;99.28;100958.59;5029764;28;20080;-61
2022/05/11 02:08:09;;;;;;;6.22;5.93;;;;;;;9.27;100.00;100961.84;5032609;28;20412;-60
2022/05/11 02:10:36;;;;;;;6.43;6.13;;;;;;;9.24;100.00;100956.84;5032625;28;20038;-62
2022/05/11 02:13:02;;;;;;;6.30;6.00;;;;;;;9.25;100.00;100957.69;5032213;28;20026;-61
2022/05/11 02:15:27;;;;;;;5.90;5.70;;;;;;;9.28;100.00;100954.72;5031799;28;20485;-62
2022/05/11 02:17:54;;;;;;;6.40;6.10;;;;;;;9.24;99.70;100948.06;5032296;28;20072;-61
2022/05/11 02:20:21;;;;;;;6.00;5.80;;;;;;;9.25;100.00;100949.72;5031057;28;20033;-61
2022/05/11 02:22:47;;;;;;;6.10;5.85;;;;;;;9.24;100.00;100946.25;5032651;28;20412;-62
2022/05/11 02:25:15;;;;;;;6.20;5.90;;;;;;;9.23;100.00;100952.53;5032265;28;20091;-62
2022/05/11 02:27:42;;;;;;;6.00;5.80;;;;;;;9.25;100.00;100949.72;5032508;28;20029;-62
2022/05/11 02:30:10;;;;;;;5.55;5.35;;;;;;;9.19;100.00;100951.22;5032459;28;20036;-62
2022/05/11 02:32:36;;;;;;;5.82;5.63;;;;;;;9.18;100.00;100948.69;5031692;28;20029;-62
2022/05/11 02:35:12;;;;;;;5.80;5.60;;;;;;;9.17;100.00;100949.69;5027280;28;20489;-61
2022/05/11 02:37:53;;;;;;;6.18;5.88;;;;;;;9.19;100.00;100956.50;5025450;28;20025;-60
2022/05/11 02:40:24;;;;;;;6.57;6.28;;;;;;;9.19;100.00;100958.31;5032020;28;20492;-62
2022/05/11 02:42:50;;;;;;;5.80;5.60;;;;;;;9.24;100.00;100958.66;5031403;28;20132;-62
2022/05/11 02:45:16;;;;;;;6.32;6.03;;;;;;;9.29;100.00;100956.41;5032004;28;20503;-62
2022/05/11 02:47:43;;;;;;;6.22;5.93;;;;;;;9.40;100.00;100956.97;5021995;28;20029;-62
2022/05/11 02:50:10;;;;;;;6.10;5.85;;;;;;;9.51;100.00;100942.63;5032922;28;20496;-61
2022/05/11 02:52:36;;;;;;;5.75;5.55;;;;;;;9.91;100.00;100957.03;5032741;28;20033;-62
2022/05/11 02:55:03;;;;;;;5.68;5.47;;;;;;;10.01;99.73;100959.56;5043058;28;20100;-61
2022/05/11 02:57:28;;;;;;;6.30;6.00;;;;;;;10.28;97.56;100961.97;5032240;28;20090;-62
2022/05/11 02:59:54;;;;;;;6.20;5.90;;;;;;;10.35;96.76;100954.22;5031900;28;20022;-62
2022/05/11 03:02:21;;;;;;;5.70;5.50;;;;;;;10.24;97.43;100964.16;5026313;28;20037;-62
2022/05/11 03:04:48;;;;;;;5.90;5.70;;;;;;;10.05;97.86;100960.91;5028702;28;20122;-62
2022/05/11 03:07:13;;;;;;;6.60;6.30;;;;;;;9.92;100.00;100966.66;5030418;28;20037;-62
2022/05/11 03:09:39;;;;;;;6.50;6.20;;;;;;;9.82;100.00;100968.59;5031660;28;20508;-62
2022/05/11 03:12:05;;;;;;;5.95;5.75;;;;;;;9.82;100.00;100966.78;5025250;28;20030;-62
2022/05/11 03:14:32;;;;;;;6.30;6.00;;;;;;;10.00;100.00;100972.00;5031577;28;20427;-61
2022/05/11 03:16:57;;;;;;;6.00;5.80;;;;;;;9.97;100.00;100967.81;5031673;28;20018;-61
2022/05/11 03:19:23;;;;;;;5.95;5.75;;;;;;;10.14;99.07;100967.91;5031525;28;20163;-61
2022/05/11 03:21:50;;;;;;;6.20;5.90;;;;;;;10.17;98.66;100971.06;5031332;28;20029;-61
2022/05/11 03:24:17;;;;;;;6.40;6.10;;;;;;;10.28;98.10;100969.13;5031669;28;20116;-62
2022/05/11 03:26:42;;;;;;;6.30;6.00;;;;;;;10.19;98.10;100979.66;5035871;28;20385;-60
2022/05/11 03:29:08;;;;;;;6.50;6.20;;;;;;;10.51;96.84;100983.44;5035655;28;20029;-60
2022/05/11 03:31:35;;;;;;;6.30;6.00;;;;;;;11.28;92.19;100989.25;5034547;28;20025;-60
2022/05/11 03:36:50;;;;;;;6.30;6.00;;;;;;;12.10;85.39;100998.69;5023683;28;20417;-61
2022/05/11 03:39:16;;;;;;;6.20;5.90;;;;;;;13.01;79.46;100997.16;5034085;28;20040;-61
2022/05/11 03:41:45;;;;;;;6.20;5.90;;;;;;;13.70;75.34;100997.84;5027146;28;20099;-62
2022/05/11 03:44:11;;;;;;;6.45;6.15;;;;;;;14.35;71.73;100999.69;5033068;28;20053;-62
2022/05/11 03:46:36;;;;;;;6.50;6.20;;;;;;;14.73;69.91;101006.72;5033808;28;20056;-62
2022/05/11 03:49:02;;;;;;;6.30;6.00;;;;;;;16.07;64.57;101011.03;5035282;28;20086;-61
2022/05/11 03:51:27;;;;;;;6.50;6.20;;;;;;;17.35;59.89;101010.09;5035049;28;20029;-61
2022/05/11 03:53:53;;;;;;;6.60;6.30;;;;;;;18.99;53.87;101017.75;5035482;28;20022;-62
2022/05/11 03:56:18;;;;;;;6.40;6.10;;;;;;;19.54;51.74;101012.53;5024381;28;20030;-62
2022/05/11 03:58:47;;;;;;;6.75;6.45;;;;;;;20.60;48.81;101019.44;5034127;28;20029;-63
2022/05/11 04:01:14;;;;;;;7.00;6.70;;;;;;;20.87;47.09;101019.06;5033768;28;20026;-61
2022/05/11 04:03:40;;;;;;;7.10;6.80;;;;;;;21.64;44.75;101027.13;5033849;28;20029;-62
2022/05/11 04:06:05;;;;;;;6.70;6.40;;;;;;;22.80;41.85;101028.72;5034682;28;20373;-62
2022/05/11 04:08:31;;;;;;;6.80;6.50;;;;;;;23.93;39.33;101034.84;5034094;28;20033;-62
2022/05/11 04:10:56;;;;;;;6.70;6.40;;;;;;;25.24;36.73;101042.00;5030860;28;20036;-61
2022/05/11 04:13:22;;;;;;;6.80;6.50;;;;;;;25.24;36.21;101039.28;5034278;28;20029;-62
2022/05/11 04:15:50;;;;;;;7.10;6.80;;;;;;;24.34;37.70;101042.72;5034751;28;20033;-62
2022/05/11 04:18:16;;;;;;;7.05;6.75;;;;;;;23.71;38.94;101042.13;5023418;28;20041;-62
2022/05/11 04:20:42;;;;;;;7.03;6.72;;;;;;;25.68;35.30;101041.75;5032567;28;20032;-66
2022/05/11 04:23:07;;;;;;;7.00;6.70;;;;;;;24.36;36.67;101043.28;5034464;28;20401;-62
2022/05/11 04:25:33;;;;;;;7.10;6.80;;;;;;;25.40;34.72;101048.34;5017511;28;20065;-62
2022/05/11 04:27:58;;;;;;;7.20;6.90;;;;;;;24.89;35.47;101050.59;5026197;28;20042;-61
2022/05/11 04:30:26;;;;;;;7.10;6.80;;;;;;;25.16;35.51;101045.19;5034639;28;20025;-62
2022/05/11 04:32:53;;;;;;;7.25;6.95;;;;;;;25.82;34.44;101036.69;5040724;28;20075;-61
2022/05/11 04:35:19;;;;;;;7.00;6.70;;;;;;;26.06;33.62;101045.25;5039077;28;20798;-62
2022/05/11 04:37:44;;;;;;;6.85;6.55;;;;;;;26.36;33.57;101052.69;5041586;28;20104;-62
2022/05/11 04:40:11;;;;;;;7.05;6.75;;;;;;;26.00;33.56;101049.00;5034239;28;20067;-62
2022/05/11 04:42:38;;;;;;;6.90;6.60;;;;;;;27.15;32.09;101063.25;5033597;28;20053;-62
2022/05/11 04:45:04;;;;;;;7.00;6.70;;;;;;;27.78;30.92;101055.59;5033310;28;20036;-63
2022/05/11 04:47:29;;;;;;;6.80;6.50;;;;;;;27.30;31.40;101056.16;5034466;28;20044;-60
2022/05/11 04:49:57;;;;;;;6.95;6.65;;;;;;;27.70;30.42;101058.88;5028186;28;20398;-61
2022/05/11 04:52:22;;;;;;;7.07;6.78;;;;;;;28.31;29.84;101055.97;5034222;28;20087;-62
2022/05/11 04:54:49;;;;;;;7.05;6.75;;;;;;;28.86;29.30;101055.91;5032394;28;20456;-63
2022/05/11 04:57:18;;;;;;;7.05;6.75;;;;;;;28.54;29.43;101050.94;5029492;28;20025;-62
2022/05/11 04:59:43;;;;;;;7.07;6.78;;;;;;;28.75;28.93;101054.38;5032099;28;20436;-62
2022/05/11 05:02:15;;;;;;;7.20;6.90;;;;;;;28.72;28.48;101052.19;5023740;28;20035;-61
2022/05/11 05:04:41;;;;;;;7.30;7.00;;;;;;;28.08;29.58;101051.13;5033804;28;20055;-62
2022/05/11 05:07:06;;;;;;;7.00;6.70;;;;;;;28.47;28.84;101059.44;5033001;28;20037;-62
2022/05/11 05:09:32;;;;;;;7.13;6.82;;;;;;;28.86;28.39;101059.44;5033661;28;20537;-62
2022/05/11 05:11:57;;;;;;;7.25;6.95;;;;;;;28.99;27.87;101065.41;5033620;28;20018;-62
2022/05/11 05:14:23;;;;;;;7.15;6.85;;;;;;;29.42;27.27;101059.03;5037068;28;20036;-63
2022/05/11 05:16:48;;;;;;;7.10;6.80;;;;;;;28.50;28.26;101063.53;5033820;28;20017;-61
2022/05/11 05:19:14;;;;;;;7.22;6.93;;;;;;;29.32;26.94;101064.59;5033633;28;20021;-61
2022/05/11 05:21:40;;;;;;;7.47;7.18;;;;;;;28.97;27.50;101059.44;5032075;28;20037;-61
2022/05/11 05:24:06;;;;;;;7.28;6.97;;;;;;;29.04;26.99;101054.47;5020508;28;20033;-62
2022/05/11 05:26:32;;;;;;;7.35;7.05;;;;;;;29.57;26.15;101055.38;5033439;28;20034;-61
2022/05/11 05:31:41;;;;;;;;;;;;;;;29.27;25.51;101059.16;5028641;28;20032;-62
2022/05/11 05:34:07;;;;;;;7.18;6.88;;;;;;;30.06;24.63;101054.28;5033692;28;19909;-62
2022/05/11 05:36:36;;;;;;;7.22;6.93;;;;;;;29.74;25.10;101060.38;5033205;28;20014;-62
2022/05/11 05:39:03;;;;;;;7.28;6.97;;;;;;;30.67;23.89;101059.00;5022632;28;20029;-63
2022/05/11 05:41:28;;;;;;;7.28;6.97;;;;;;;29.39;25.66;101056.06;5028586;28;20652;-62
2022/05/11 05:43:55;;;;;;;7.10;6.80;;;;;;;30.08;25.04;101056.72;5037905;28;20041;-62
2022/05/11 05:46:21;;;;;;;7.30;7.00;;;;;;;31.50;23.14;101065.59;5032282;28;20036;-63
2022/05/11 05:48:47;;;;;;;7.28;6.97;;;;;;;31.17;23.83;101066.72;5031229;28;20175;-63
2022/05/11 05:51:15;;;;;;;7.30;7.00;;;;;;;30.70;23.87;101069.38;5027616;28;20061;-61
2022/05/11 05:53:41;;;;;;;7.40;7.10;;;;;;;31.08;23.36;101067.41;5025472;28;20033;-62
2022/05/11 05:56:08;;;;;;;7.30;7.00;;;;;;;31.40;23.28;101065.78;5027176;28;20044;-62
2022/05/11 05:58:34;;;;;;;7.10;6.80;;;;;;;31.18;23.22;101069.16;5029819;28;20048;-63
2022/05/11 06:01:00;;;;;;;7.32;7.03;;;;;;;30.92;23.21;101070.66;5031508;28;20401;-61
2022/05/11 06:03:28;;;;;;;7.43;7.13;;;;;;;31.07;23.01;101073.19;5028808;28;20087;-61
2022/05/11 06:05:54;;;;;;;7.55;7.25;;;;;;;31.84;22.56;101069.94;5026745;28;20469;-66
2022/05/11 06:08:21;;;;;;;7.30;7.00;;;;;;;31.78;21.86;101071.97;5024733;28;20033;-63
2022/05/11 06:10:48;;;;;;;7.10;6.80;;;;;;;30.91;22.10;101064.38;5020575;28;20061;-64
2022/05/11 06:13:15;;;;;;;7.20;6.90;;;;;;;31.74;21.94;101073.69;5027817;28;20017;-64
2022/05/11 06:15:42;;;;;;;7.40;7.10;;;;;;;31.75;22.24;101079.97;5024397;28;20100;-64
2022/05/11 06:18:09;;;;;;;7.30;7.00;;;;;;;31.96;22.02;101074.94;5032560;28;20029;-65
2022/05/11 06:20:35;;;;;;;7.30;7.00;;;;;;;31.34;22.32;101081.50;5018176;28;20396;-65
2022/05/11 06:23:03;;;;;;;7.20;6.90;;;;;;;32.21;21.47;101081.81;5028722;28;20091;-65
2022/05/11 06:25:32;;;;;;;7.50;7.20;;;;;;;32.81;21.09;101084.38;5028436;28;20392;-65
2022/05/11 06:27:58;;;;;;;7.50;7.20;;;;;;;33.13;20.34;101086.94;5025057;28;20072;-66
2022/05/11 06:30:28;;;;;;;7.45;7.15;;;;;;;32.70;20.90;101083.81;5032017;28;20021;-65
2022/05/11 06:32:55;;;;;;;7.22;6.93;;;;;;;31.83;21.42;101093.00;5021606;28;20033;-65
2022/05/11 06:35:21;;;;;;;7.40;7.10;;;;;;;33.12;20.08;101087.22;5024041;28;20124;-64
2022/05/11 06:37:48;;;;;;;7.40;7.10;;;;;;;32.92;19.95;101081.09;5033236;28;20033;-65
2022/05/11 06:40:15;;;;;;;7.30;7.00;;;;;;;31.54;21.29;101085.00;5036464;28;20463;-65
2022/05/11 06:42:42;;;;;;;7.40;7.10;;;;;;;33.07;20.14;101077.19;5028290;28;20420;-65
2022/05/11 06:45:09;;;;;;;7.30;7.00;;;;;;;33.19;19.77;101079.34;5028441;28;20036;-65
2022/05/11 06:47:34;;;;;;;7.15;6.85;;;;;;;32.48;19.95;101073.59;5026786;28;20033;-65
2022/05/11 06:50:01;;;;;;;7.15;6.85;;;;;;;33.01;19.93;101075.66;5028485;28;20025;-65
2022/05/11 06:52:26;;;;;;;7.30;7.00;;;;;;;33.03;19.50;101078.91;5028050;28;20060;-65
2022/05/11 07:00:22;;;;;;;7.00;6.70;;;;;;;33.43;17.87;101074.38;5032496;28;20031;-64
2022/05/11 07:02:48;;;;;;;7.10;6.80;;;;;;;34.06;17.61;101075.13;5033788;28;20116;-64
2022/05/11 07:05:14;;;;;;;7.20;6.90;;;;;;;30.70;20.42;101071.25;5030405;28;20037;-64
2022/05/11 07:07:39;;;;;;;7.10;6.80;;;;;;;32.83;18.28;101071.97;5032582;28;20113;-65
2022/05/11 07:10:06;;;;;;;7.00;6.70;;;;;;;33.08;18.45;101070.56;5028203;28;20112;-64
2022/05/11 07:12:35;;;;;;;7.07;6.78;;;;;;;33.24;17.97;101065.47;5020320;28;20084;-65
2022/05/11 07:15:05;;;;;;;7.10;6.80;;;;;;;33.08;17.53;101064.25;5029623;28;20120;-65
2022/05/11 07:17:36;;;;;;;6.93;6.63;;;;;;;33.88;16.74;101070.69;5026510;28;20884;-64
2022/05/11 07:20:06;;;;;;;7.07;6.78;;;;;;;32.74;17.48;101062.81;5029047;28;20370;-66
2022/05/11 07:22:31;;;;;;;7.30;7.00;;;;;;;32.64;16.15;101060.31;5026135;28;20033;-65
2022/05/11 07:24:57;;;;;;;7.10;6.80;;;;;;;33.11;16.07;101058.91;5030197;28;20492;-65
2022/05/11 07:27:22;;;;;;;7.07;6.78;;;;;;;33.17;14.80;101056.84;5030299;28;20029;-66
2022/05/11 07:29:50;;;;;;;7.03;6.72;;;;;;;33.95;14.78;101057.28;5030585;28;20040;-66
2022/05/11 07:32:16;;;;;;;7.13;6.82;;;;;;;33.79;14.09;101060.44;5030383;28;20063;-64
2022/05/11 07:34:41;;;;;;;7.05;6.75;;;;;;;33.55;14.01;101057.25;5034092;28;20472;-64
2022/05/11 07:37:07;;;;;;;7.00;6.70;;;;;;;34.13;13.72;101056.19;5020585;28;20045;-64
2022/05/11 07:39:33;;;;;;;6.95;6.65;;;;;;;33.97;14.56;101046.78;5028721;28;20029;-64
2022/05/11 07:41:59;;;;;;;7.20;6.90;;;;;;;32.61;15.48;101048.03;5030785;28;20718;-64
2022/05/11 07:44:25;;;;;;;7.20;6.90;;;;;;;33.29;15.27;101046.09;5030963;28;20050;-64
2022/05/11 07:46:51;;;;;;;7.00;6.70;;;;;;;31.17;16.28;101042.84;5028370;28;20064;-64
2022/05/11 07:49:18;;;;;;;6.82;6.53;;;;;;;31.34;16.16;101042.31;5024074;28;20045;-63
2022/05/11 07:51:45;;;;;;;6.97;6.68;;;;;;;30.25;16.30;101035.16;5031224;28;20443;-64
2022/05/11 07:54:12;;;;;;;6.90;6.60;;;;;;;30.46;16.48;101035.72;5031153;28;20116;-64
2022/05/11 08:02:06;;;;;;;7.18;6.88;;;;;;;28.44;19.21;101020.97;5026026;28;20045;-65
2022/05/11 08:04:32;;;;;;;7.10;6.80;;;;;;;29.03;18.96;101020.06;5028850;28;20049;-66
2022/05/11 08:06:58;;;;;;;7.03;6.72;;;;;;;27.43;20.53;101023.75;5030086;28;20028;-63
2022/05/11 08:09:24;;;;;;;7.38;7.07;;;;;;;28.74;17.32;101015.31;5030063;28;20036;-65
2022/05/11 08:11:51;;;;;;;6.68;6.38;;;;;;;28.74;18.61;101015.31;5030062;28;20086;-65
2022/05/11 08:14:18;;;;;;;6.97;6.68;;;;;;;26.93;21.36;101024.53;5033392;28;20048;-64
2022/05/11 08:16:43;;;;;;;6.70;6.40;;;;;;;27.56;19.95;101011.47;5033994;28;20091;-63
2022/05/11 08:19:09;;;;;;;6.90;6.60;;;;;;;25.92;21.54;101014.19;5032857;28;20021;-63
2022/05/11 08:21:34;;;;;;;7.00;6.70;;;;;;;26.67;20.25;101004.66;5033822;28;20033;-65
2022/05/11 08:24:00;;;;;;;7.10;6.80;;;;;;;27.54;19.92;101011.75;5035074;28;20789;-64
2022/05/11 08:26:26;;;;;;;7.10;6.80;;;;;;;27.13;21.08;101013.69;5032756;28;20033;-65
2022/05/11 08:28:51;;;;;;;7.00;6.70;;;;;;;27.12;21.43;101009.34;5041581;28;20397;-65
2022/05/11 08:34:01;;;;;;;7.13;6.82;;;;;;;26.33;21.76;100998.84;5032825;28;20063;-64
2022/05/11 08:36:28;;;;;;;6.88;6.57;;;;;;;25.85;21.69;100992.69;5036579;28;20477;-65
2022/05/11 08:38:56;;;;;;;6.90;6.60;;;;;;;26.82;21.58;100995.69;5033304;28;20056;-64
2022/05/11 08:41:47;;;;;;;7.20;6.90;;;;;;;25.77;21.57;100990.47;5033022;28;20025;-64
2022/05/11 08:44:24;;;;;;;7.18;6.88;;;;;;;27.12;21.57;100989.47;5028279;28;20052;-64
2022/05/11 08:47:21;;;;;;;6.97;6.68;;;;;;;26.09;21.92;100985.72;5034149;28;20040;-64
2022/05/11 08:50:12;;;;;;;6.97;6.68;;;;;;;27.19;20.73;100979.09;5033708;28;20036;-64
2022/05/11 08:52:52;;;;;;;6.80;6.50;;;;;;;26.69;21.44;100981.53;5026710;28;20038;-63
2022/05/11 08:55:30;;;;;;;7.35;7.05;;;;;;;26.91;21.68;100977.72;5030526;28;20032;-62
2022/05/11 08:57:57;;;;;;;7.00;6.70;;;;;;;26.04;21.54;100968.56;5024619;28;20041;-63
2022/05/11 09:00:23;;;;;;;7.18;6.88;;;;;;;25.91;21.68;100961.72;5032959;28;20033;-64
2022/05/11 09:02:54;;;;;;;6.80;6.50;;;;;;;26.71;21.24;100979.34;5033415;28;20040;-63
2022/05/11 09:05:23;;;;;;;7.07;6.78;;;;;;;25.64;21.49;100964.56;5032045;28;20175;-63
2022/05/11 09:07:53;;;;;;;7.28;6.97;;;;;;;25.43;21.67;100957.41;5029280;28;20033;-64
2022/05/11 09:10:23;;;;;;;7.20;6.90;;;;;;;26.13;20.30;100959.63;5026232;28;20100;-64
2022/05/11 09:13:10;;;;;;;7.00;6.70;;;;;;;27.05;19.97;100975.31;5031660;28;20053;-64
2022/05/11 09:15:53;;;;;;;6.95;6.65;;;;;;;26.66;19.42;100971.19;5029361;28;20039;-62
2022/05/11 09:18:32;;;;;;;7.03;6.72;;;;;;;26.47;17.49;100970.06;5029977;28;20752;-66
2022/05/11 09:21:10;;;;;;;6.90;6.60;;;;;;;26.43;17.27;100966.25;5030900;28;20508;-63
2022/05/11 09:23:41;;;;;;;6.93;6.63;;;;;;;24.76;19.09;100956.91;5033215;28;20039;-62
2022/05/11 09:26:14;;;;;;;7.00;6.70;;;;;;;26.47;17.55;100961.91;5030889;28;20384;-63
2022/05/11 09:28:45;;;;;;;7.00;6.70;;;;;;;25.11;19.66;100957.44;5022115;28;20554;-64
2022/05/11 09:31:13;;;;;;;6.60;6.30;;;;;;;24.15;20.33;100955.44;5033289;28;20055;-65
2022/05/11 09:33:59;;;;;;;6.97;6.68;;;;;;;24.09;20.78;100951.00;5030265;28;20404;-65
2022/05/11 09:36:40;;;;;;;7.20;6.90;;;;;;;24.18;20.86;100947.63;5029543;28;20083;-64
2022/05/11 09:39:17;;;;;;;7.15;6.85;;;;;;;23.50;21.84;100937.25;5031341;28;20052;-65
2022/05/11 09:41:49;;;;;;;6.97;6.68;;;;;;;24.11;22.12;100944.28;5020275;28;20064;-64
2022/05/11 09:44:26;;;;;;;6.90;6.60;;;;;;;25.05;20.92;100945.75;5021393;28;20042;-63
2022/05/11 09:46:54;;;;;;;7.18;6.88;;;;;;;24.32;20.88;100941.81;5027271;28;20030;-65
2022/05/11 09:49:19;;;;;;;6.85;6.55;;;;;;;24.40;20.75;100930.53;5028349;28;20032;-65
2022/05/11 09:51:45;;;;;;;6.80;6.50;;;;;;;24.18;21.08;100928.66;5031773;28;20029;-65
2022/05/11 09:54:46;;;;;;;6.90;6.60;;;;;;;24.09;21.71;100934.75;5031722;28;20076;-65
2022/05/11 09:57:12;;;;;;;7.10;6.80;;;;;;;24.48;21.64;100936.28;5030603;28;20484;-65
2022/05/11 09:59:41;;;;;;;6.82;6.53;;;;;;;23.71;22.28;100939.19;5032838;28;20045;-65
2022/05/11 10:02:28;;;;;;;6.80;6.50;;;;;;;24.00;22.15;100937.09;5032692;28;20036;-65
2022/05/11 10:05:27;;;;;;;6.50;6.20;;;;;;;23.75;22.59;100936.81;5033044;28;20029;-65
2022/05/11 10:08:12;;;;;;;6.75;6.45;;;;;;;23.50;22.02;100939.97;5032819;28;20033;-65
2022/05/11 10:10:43;;;;;;;7.00;6.70;;;;;;;23.11;23.19;100934.53;5037732;28;20028;-65
2022/05/11 10:13:21;;;;;;;6.93;6.63;;;;;;;23.83;22.26;100934.47;5032275;28;20037;-65
2022/05/11 10:21:50;;;;;;;6.68;6.38;;;;;;;23.92;22.00;100938.38;5028618;28;20040;-66
2022/05/11 10:24:45;;;;;;;6.90;6.60;;;;;;;23.85;21.81;100931.50;5020035;28;20053;-65
2022/05/11 10:27:11;;;;;;;;;;;;;;;24.17;22.79;100932.44;5029812;28;20060;-66
2022/05/11 10:29:47;;;;;;;6.90;6.60;;;;;;;23.90;22.10;100937.00;5032297;28;20416;-66
2022/05/11 10:32:40;;;;;;;6.80;6.50;;;;;;;23.99;22.09;100930.88;5031488;28;20037;-66
2022/05/11 10:35:19;;;;;;;7.25;6.95;;;;;;;23.48;21.98;100923.16;5031907;28;20064;-65
2022/05/11 10:38:06;;;;;;;6.65;6.35;;;;;;;23.03;23.46;100926.84;5033308;28;20045;-65
2022/05/11 10:40:39;;;;;;;7.00;6.70;;;;;;;23.08;23.09;100921.50;5032161;28;20030;-65
2022/05/11 10:43:07;;;;;;;7.10;6.80;;;;;;;22.86;23.15;100919.56;5030859;28;20041;-66
2022/05/11 10:45:54;;;;;;;7.13;6.82;;;;;;;23.41;23.32;100920.63;5031660;28;20018;-66
2022/05/11 10:48:19;;;;;;;6.80;6.50;;;;;;;23.32;23.20;100919.41;5026514;28;20073;-66
2022/05/11 10:51:06;;;;;;;6.82;6.53;;;;;;;23.58;23.08;100913.28;5031454;28;20057;-66
2022/05/11 10:53:46;;;;;;;6.70;6.40;;;;;;;23.61;22.96;100907.38;5027531;28;20026;-66
2022/05/11 10:56:59;;;;;;;6.78;6.47;;;;;;;23.92;23.60;100916.69;5031354;28;20392;-65
2022/05/11 10:59:51;;;;;;;7.15;6.85;;;;;;;23.43;23.20;100910.38;5011202;28;20048;-65
2022/05/11 11:02:37;;;;;;;7.13;6.82;;;;;;;22.74;23.73;100896.31;5024933;28;20496;-66
2022/05/11 11:05:19;;;;;;;6.70;6.40;;;;;;;22.80;23.36;100906.97;5024533;28;20038;-66
2022/05/11 11:07:58;;;;;;;7.28;6.97;;;;;;;22.73;23.57;100900.09;5027808;28;20097;-66
2022/05/11 11:10:39;;;;;;;6.80;6.50;;;;;;;23.07;23.49;100903.66;5026783;28;20041;-65
2022/05/11 11:13:17;;;;;;;6.70;6.40;;;;;;;23.66;23.35;100907.47;5026316;28;20082;-66
2022/05/11 11:15:44;;;;;;;7.10;6.80;;;;;;;23.26;23.25;100909.59;5025104;28;20028;-65
2022/05/11 11:18:16;;;;;;;6.82;6.53;;;;;;;23.41;23.67;100905.19;5031031;28;20036;-64
2022/05/11 11:20:46;;;;;;;6.80;6.50;;;;;;;23.82;23.84;100903.03;5027214;28;20083;-67
2022/05/11 11:23:29;;;;;;;6.97;6.68;;;;;;;23.80;23.67;100898.94;5029908;28;20029;-64
2022/05/11 11:26:05;;;;;;;6.70;6.40;;;;;;;23.37;23.09;100898.66;5022275;28;20112;-63
2022/05/11 11:29:00;;;;;;;6.63;6.32;;;;;;;23.74;23.00;100897.25;5026966;28;20043;-65
2022/05/11 11:31:27;;;;;;;6.90;6.60;;;;;;;23.98;23.02;100899.41;5019335;28;20042;-66
2022/05/11 11:33:54;;;;;;;6.82;6.53;;;;;;;23.51;23.02;100907.25;5030227;28;20033;-66
2022/05/11 11:36:28;;;;;;;6.47;6.18;;;;;;;24.03;22.66;100900.56;5024657;28;20029;-64
2022/05/11 11:38:54;;;;;;;;;;;;;;;24.53;21.91;100898.38;5030774;28;20121;-66
2022/05/11 11:41:23;;;;;;;7.03;6.72;;;;;;;24.56;22.83;100902.44;5029964;28;20364;-66
2022/05/11 11:43:58;;;;;;;7.10;6.80;;;;;;;22.28;24.76;100882.03;5028304;28;20546;-64
2022/05/11 11:46:44;;;;;;;7.10;6.80;;;;;;;23.63;23.61;100891.69;5026556;28;20361;-63
2022/05/11 11:49:10;;;;;;;7.10;6.80;;;;;;;23.93;23.35;100883.09;5031508;28;20032;-63
2022/05/11 11:52:03;;;;;;;6.80;6.50;;;;;;;23.74;23.27;100875.59;5034128;28;20029;-64
2022/05/11 11:54:38;;;;;;;7.07;6.78;;;;;;;23.94;23.74;100879.34;5034044;28;20125;-63
2022/05/11 11:57:14;;;;;;;6.80;6.50;;;;;;;24.35;24.17;100877.03;5033657;28;20021;-64
2022/05/11 11:59:49;;;;;;;6.80;6.50;;;;;;;24.39;23.35;100872.75;5034362;28;20039;-64
2022/05/11 12:02:23;;;;;;;6.85;6.55;;;;;;;24.22;23.21;100872.00;5033467;28;20029;-65
2022/05/11 12:04:51;;;;;;;7.20;6.90;;;;;;;24.76;23.01;100866.53;5029944;28;20040;-65
2022/05/11 12:15:43;;;;;;;6.97;6.68;;;;;;;23.12;24.03;100861.22;5033843;28;20032;-63